Terminal Aerodrome Forecast
Issued by NWS

Home | Current Version | Previous Version | Text Only | Print | Product List | Glossary On
Versions: 1 2 3 4 5 6 7 8 9 10 11 12 13 14 15 16 17 18 19
000
FTUS43 KDLH 252328
TAFBRD
TAF
KBRD 252328Z 2600/2624 25010KT 1SM -SN OVC024
     FM260500 26007KT 3SM -SN BKN040
     FM260700 VRB04KT 6SM -SN OVC008
     FM261200 29004KT 4SM -SN OVC008
     FM261600 30008KT P6SM BKN020
     FM261800 30010KT P6SM SCT020=

USA.gov is the U.S. government's official web portal to all federal, state and local government web resources and services.